Time;durP1;ratioP1;P1;durP2;ratioP2;P2;SDS_P1;SDS_P2;PMS_P1;PMS_P2;Temp;Humidity;BMP_temperature;BMP_pressure;BME280_temperature;BME280_humidity;BME280_pressure;Samples;Min_cycle;Max_cycle;Signal;HPM_P1;HPM_P2
2022/07/06 00:01:24;;;;;;;7.47;2.28;;;13.90;99.90;;;;;;5073505;28;20051;-71
2022/07/06 00:03:49;;;;;;;6.60;2.15;;;13.90;99.90;;;;;;5058321;28;20079;-71
2022/07/06 00:06:16;;;;;;;9.20;2.40;;;14.00;99.90;;;;;;5038073;28;20067;-71
2022/07/06 00:08:43;;;;;;;4.88;2.00;;;14.00;99.90;;;;;;5073751;28;20060;-71
2022/07/06 00:11:08;;;;;;;10.68;2.78;;;13.90;99.90;;;;;;5056643;28;20041;-71
2022/07/06 00:13:34;;;;;;;8.82;2.40;;;13.90;99.90;;;;;;5049172;28;20064;-71
2022/07/06 00:16:00;;;;;;;5.97;2.03;;;13.80;99.90;;;;;;5079361;28;20064;-71
2022/07/06 00:18:26;;;;;;;7.32;2.15;;;13.80;99.90;;;;;;5054183;28;20112;-71
2022/07/06 00:20:51;;;;;;;5.80;2.55;;;13.80;99.90;;;;;;5062548;28;20108;-71
2022/07/06 00:23:18;;;;;;;6.35;2.50;;;13.90;99.90;;;;;;5068509;28;20049;-71
2022/07/06 00:25:43;;;;;;;7.10;2.00;;;13.90;99.90;;;;;;5066264;28;20124;-71
2022/07/06 00:28:09;;;;;;;9.52;2.45;;;13.90;99.90;;;;;;5065508;28;20060;-71
2022/07/06 00:30:35;;;;;;;5.20;2.22;;;13.90;99.90;;;;;;5049513;28;20157;-70
2022/07/06 00:33:00;;;;;;;6.22;2.80;;;13.90;99.90;;;;;;5068733;28;20123;-71
2022/07/06 00:35:26;;;;;;;5.78;2.10;;;13.80;99.90;;;;;;5083871;28;20068;-71
2022/07/06 00:37:52;;;;;;;6.30;2.30;;;13.80;99.90;;;;;;5065912;28;20063;-71
2022/07/06 00:40:18;;;;;;;6.15;2.30;;;13.80;99.90;;;;;;5066286;28;20033;-71
2022/07/06 00:42:46;;;;;;;5.20;2.58;;;13.80;99.90;;;;;;5073679;28;20459;-71
2022/07/06 00:45:12;;;;;;;6.60;2.33;;;13.70;99.90;;;;;;5037774;28;20048;-71
2022/07/06 00:47:39;;;;;;;3.13;1.90;;;13.70;99.90;;;;;;5057931;28;20032;-71
2022/07/06 00:50:17;;;;;;;3.72;1.95;;;13.60;99.90;;;;;;5058088;28;20052;-71
2022/07/06 00:52:45;;;;;;;5.70;2.30;;;13.60;99.90;;;;;;5060048;28;20044;-71
2022/07/06 00:55:11;;;;;;;7.65;2.92;;;13.60;99.90;;;;;;5059899;28;20044;-71
2022/07/06 00:57:38;;;;;;;6.18;2.38;;;13.60;99.90;;;;;;5059732;28;20096;-71
2022/07/06 01:00:06;;;;;;;6.68;2.10;;;13.60;99.90;;;;;;5065873;28;20072;-71
2022/07/06 01:02:32;;;;;;;6.88;2.45;;;13.60;99.90;;;;;;5063954;28;20060;-71
2022/07/06 01:04:58;;;;;;;4.85;2.30;;;13.60;99.90;;;;;;5063023;28;20381;-71
2022/07/06 01:07:25;;;;;;;5.55;2.38;;;13.60;99.90;;;;;;5075531;28;20104;-71
2022/07/06 01:09:50;;;;;;;8.32;2.53;;;13.60;99.90;;;;;;5058016;28;20056;-71
2022/07/06 01:12:18;;;;;;;5.40;3.22;;;13.60;99.90;;;;;;5059735;28;20044;-71
2022/07/06 01:14:45;;;;;;;7.07;2.92;;;13.60;99.90;;;;;;5059662;28;20075;-71
2022/07/06 01:17:11;;;;;;;4.72;2.40;;;13.60;99.90;;;;;;5060973;28;20040;-71
2022/07/06 01:19:37;;;;;;;9.18;2.80;;;13.60;99.90;;;;;;5081358;28;20473;-71
2022/07/06 01:22:03;;;;;;;6.38;2.53;;;13.50;99.90;;;;;;5058499;28;20049;-71
2022/07/06 01:24:29;;;;;;;5.57;2.40;;;13.50;99.90;;;;;;5078112;28;20450;-71
2022/07/06 01:26:54;;;;;;;4.70;2.53;;;13.50;99.90;;;;;;5058927;28;20048;-71
2022/07/06 01:29:20;;;;;;;7.15;2.47;;;13.50;99.90;;;;;;5047958;28;20057;-71
2022/07/06 01:31:50;;;;;;;8.98;2.42;;;13.40;99.90;;;;;;5077319;28;20043;-71
2022/07/06 01:34:19;;;;;;;6.13;2.50;;;13.50;99.90;;;;;;5074121;28;20043;-71
2022/07/06 01:36:45;;;;;;;4.88;2.40;;;13.40;99.90;;;;;;5061989;28;20110;-71
2022/07/06 01:39:11;;;;;;;8.20;2.40;;;13.40;99.90;;;;;;5065253;28;20127;-71
2022/07/06 01:41:37;;;;;;;5.03;2.20;;;13.40;99.90;;;;;;5059621;28;20079;-70
2022/07/06 01:44:04;;;;;;;9.75;2.70;;;13.40;99.90;;;;;;5054720;28;20044;-71
2022/07/06 01:46:30;;;;;;;5.75;2.20;;;13.40;99.90;;;;;;5077671;28;20040;-70
2022/07/06 01:48:56;;;;;;;7.10;2.58;;;13.40;99.90;;;;;;5062433;28;20542;-71
2022/07/06 01:51:24;;;;;;;4.60;2.17;;;13.30;99.90;;;;;;5040119;28;20055;-71
2022/07/06 01:53:50;;;;;;;5.45;2.83;;;13.40;99.90;;;;;;5046231;28;20049;-71
2022/07/06 01:56:17;;;;;;;7.25;2.38;;;13.40;99.90;;;;;;5060440;28;20053;-70
2022/07/06 01:58:43;;;;;;;5.40;2.33;;;13.40;99.90;;;;;;5060047;28;20048;-71
2022/07/06 02:01:17;;;;;;;5.80;2.92;;;13.40;99.90;;;;;;5070405;28;20059;-71
2022/07/06 02:03:43;;;;;;;7.70;2.47;;;13.40;99.90;;;;;;5056242;28;20041;-70
2022/07/06 02:06:10;;;;;;;5.22;2.10;;;13.40;99.90;;;;;;5059777;28;20123;-70
2022/07/06 02:08:36;;;;;;;5.07;2.38;;;13.40;99.90;;;;;;5058864;28;20046;-71
2022/07/06 02:11:04;;;;;;;8.32;2.40;;;13.40;99.90;;;;;;5054792;28;20104;-70
2022/07/06 02:13:30;;;;;;;5.68;2.22;;;13.40;99.90;;;;;;5062363;28;20048;-71
2022/07/06 02:15:55;;;;;;;4.25;2.10;;;13.40;99.90;;;;;;5062398;28;20045;-71
2022/07/06 02:18:21;;;;;;;6.18;2.20;;;13.50;99.90;;;;;;5081292;28;20049;-71
2022/07/06 02:20:47;;;;;;;6.45;2.03;;;13.60;99.90;;;;;;5061721;28;20036;-71
2022/07/06 02:23:13;;;;;;;5.93;2.30;;;13.60;99.90;;;;;;5078953;28;20408;-70
2022/07/06 02:25:38;;;;;;;8.18;2.55;;;13.50;99.90;;;;;;5067605;28;20045;-70
2022/07/06 02:28:04;;;;;;;5.45;2.75;;;13.50;99.90;;;;;;5075004;28;20179;-71
2022/07/06 02:30:30;;;;;;;4.65;2.08;;;13.50;99.90;;;;;;5061258;28;20056;-71
2022/07/06 02:32:56;;;;;;;5.07;2.28;;;13.60;99.90;;;;;;5066747;28;20049;-71
2022/07/06 02:35:21;;;;;;;6.15;1.88;;;13.60;99.90;;;;;;5067342;28;20067;-71
2022/07/06 02:37:48;;;;;;;4.68;2.25;;;13.60;99.90;;;;;;5059002;28;20059;-71
2022/07/06 02:40:13;;;;;;;4.03;2.13;;;13.60;99.90;;;;;;5057398;28;20037;-70
2022/07/06 02:42:39;;;;;;;4.22;2.00;;;13.60;99.90;;;;;;5062917;28;20064;-71
2022/07/06 02:45:05;;;;;;;6.88;2.78;;;13.60;99.90;;;;;;5059127;28;20041;-70
2022/07/06 02:47:31;;;;;;;3.20;2.10;;;13.60;99.90;;;;;;5067929;28;20044;-71
2022/07/06 02:49:57;;;;;;;6.82;2.38;;;13.60;99.90;;;;;;5082324;28;20055;-71
2022/07/06 02:52:23;;;;;;;4.53;2.53;;;13.60;99.90;;;;;;5063150;28;20040;-71
2022/07/06 02:54:48;;;;;;;4.47;2.15;;;13.60;99.90;;;;;;5056417;28;20041;-71
2022/07/06 02:57:15;;;;;;;5.80;2.22;;;13.60;99.90;;;;;;5062862;28;20036;-71
2022/07/06 02:59:41;;;;;;;4.85;2.30;;;13.70;99.90;;;;;;5056510;28;20080;-71
2022/07/06 03:02:07;;;;;;;4.60;1.95;;;13.70;99.90;;;;;;5059602;28;20041;-71
2022/07/06 03:04:33;;;;;;;7.80;2.60;;;13.60;99.90;;;;;;5062154;28;20056;-70
2022/07/06 03:06:59;;;;;;;5.72;2.30;;;13.60;99.90;;;;;;5082649;28;20044;-70
2022/07/06 03:09:25;;;;;;;6.97;2.10;;;13.50;99.90;;;;;;5071906;28;20049;-71
2022/07/06 03:11:51;;;;;;;6.10;2.15;;;13.50;99.90;;;;;;5060459;28;20040;-70
2022/07/06 03:14:17;;;;;;;8.05;2.20;;;13.40;99.90;;;;;;5058711;28;20051;-70
2022/07/06 03:16:42;;;;;;;4.30;2.08;;;13.40;99.90;;;;;;5055207;28;20057;-70
2022/07/06 03:19:08;;;;;;;3.03;2.13;;;13.30;99.90;;;;;;5061466;28;20523;-71
2022/07/06 03:21:34;;;;;;;3.30;1.98;;;13.30;99.90;;;;;;5057280;28;20041;-71
2022/07/06 03:24:00;;;;;;;4.45;1.95;;;13.30;99.90;;;;;;5041706;28;20069;-70
2022/07/06 03:26:25;;;;;;;7.07;2.25;;;13.30;99.90;;;;;;5035241;28;20068;-70
2022/07/06 03:28:51;;;;;;;6.90;2.05;;;13.20;99.90;;;;;;5049643;28;20052;-70
2022/07/06 03:31:17;;;;;;;5.97;2.20;;;13.30;99.90;;;;;;5039162;28;20044;-71
2022/07/06 03:33:42;;;;;;;3.83;1.73;;;13.40;99.90;;;;;;5057680;28;20046;-70
2022/07/06 03:36:09;;;;;;;9.23;2.45;;;13.40;99.90;;;;;;5037884;28;20505;-70
2022/07/06 03:38:35;;;;;;;6.38;1.75;;;13.50;99.90;;;;;;5036782;28;20506;-70
2022/07/06 03:41:01;;;;;;;6.47;1.90;;;13.60;99.90;;;;;;5052563;28;20053;-71
2022/07/06 03:43:26;;;;;;;3.33;1.70;;;13.60;99.90;;;;;;5034288;28;20056;-70
2022/07/06 03:45:52;;;;;;;6.90;1.83;;;13.60;99.90;;;;;;5051221;28;20076;-70
2022/07/06 03:48:18;;;;;;;9.27;2.25;;;13.70;99.90;;;;;;5035028;28;20102;-71
2022/07/06 03:50:44;;;;;;;6.68;1.98;;;13.70;99.90;;;;;;5031533;28;20053;-71
2022/07/06 03:53:09;;;;;;;3.25;1.55;;;13.80;99.90;;;;;;5036193;28;20037;-70
2022/07/06 03:55:35;;;;;;;8.10;2.30;;;13.80;99.90;;;;;;5032208;28;20129;-71
2022/07/06 03:58:01;;;;;;;3.78;2.10;;;13.70;99.90;;;;;;5036013;28;20052;-71
2022/07/06 04:00:27;;;;;;;7.72;2.30;;;13.70;99.90;;;;;;5021041;28;20057;-71
2022/07/06 04:02:52;;;;;;;4.95;1.88;;;13.70;99.90;;;;;;5034829;28;20045;-71
2022/07/06 04:05:21;;;;;;;5.88;2.30;;;13.70;99.90;;;;;;5053534;28;20553;-71
2022/07/06 04:07:50;;;;;;;4.57;2.00;;;13.60;99.90;;;;;;5030869;28;20080;-71
2022/07/06 04:10:16;;;;;;;5.17;2.23;;;13.60;99.90;;;;;;5031111;28;20097;-71
2022/07/06 04:12:43;;;;;;;6.13;2.40;;;13.50;99.90;;;;;;5034277;28;20049;-71
2022/07/06 04:15:11;;;;;;;6.43;2.10;;;13.40;99.90;;;;;;5053565;28;20057;-71
2022/07/06 04:17:53;;;;;;;5.97;2.15;;;13.40;99.90;;;;;;4997078;28;20045;-70
2022/07/06 04:20:23;;;;;;;6.03;2.00;;;13.30;99.90;;;;;;5036674;28;20076;-70
2022/07/06 04:22:49;;;;;;;9.68;2.58;;;13.30;99.90;;;;;;5043945;28;20413;-71
2022/07/06 04:25:15;;;;;;;7.45;2.00;;;13.30;99.90;;;;;;5041032;28;20053;-70
2022/07/06 04:27:41;;;;;;;3.00;1.98;;;13.30;99.90;;;;;;5032368;28;20053;-71
2022/07/06 04:30:08;;;;;;;4.03;2.00;;;13.30;99.90;;;;;;5051964;28;20075;-70
2022/07/06 04:32:35;;;;;;;5.10;2.10;;;13.30;99.90;;;;;;5039581;28;20037;-71
2022/07/06 04:35:01;;;;;;;6.10;2.10;;;13.30;99.90;;;;;;5022885;28;20053;-69
2022/07/06 04:37:27;;;;;;;5.78;2.05;;;13.30;99.90;;;;;;5064628;28;20095;-69
2022/07/06 04:39:53;;;;;;;4.65;2.15;;;13.30;99.90;;;;;;5042580;28;20757;-70
2022/07/06 04:42:18;;;;;;;5.95;1.88;;;13.30;99.90;;;;;;5025063;28;20061;-69
2022/07/06 04:44:45;;;;;;;4.53;1.98;;;13.30;99.90;;;;;;5029591;28;20137;-69
2022/07/06 04:47:11;;;;;;;5.63;2.42;;;13.30;99.90;;;;;;5037204;28;20049;-66
2022/07/06 04:49:37;;;;;;;5.57;2.10;;;13.40;99.90;;;;;;5021881;28;20175;-68
2022/07/06 04:52:04;;;;;;;5.20;1.80;;;13.40;99.90;;;;;;5031895;28;20545;-69
2022/07/06 04:54:29;;;;;;;4.03;1.83;;;13.50;99.90;;;;;;5009206;28;20045;-70
2022/07/06 04:56:55;;;;;;;6.00;2.13;;;13.50;99.90;;;;;;5023723;28;20124;-69
2022/07/06 04:59:21;;;;;;;4.85;1.83;;;13.60;99.90;;;;;;5047065;28;20084;-69
2022/07/06 05:01:46;;;;;;;4.93;1.90;;;13.60;99.90;;;;;;5038755;28;20075;-68
2022/07/06 05:04:13;;;;;;;5.28;1.73;;;13.70;99.90;;;;;;5037465;28;20092;-69
2022/07/06 05:06:39;;;;;;;2.50;2.15;;;13.70;99.90;;;;;;5027856;28;20074;-68
2022/07/06 05:09:05;;;;;;;7.68;1.80;;;13.80;99.90;;;;;;5037819;28;20484;-70
2022/07/06 05:11:31;;;;;;;4.88;1.70;;;13.80;99.90;;;;;;5012029;28;20478;-70
2022/07/06 05:13:57;;;;;;;7.72;1.90;;;13.90;99.90;;;;;;5056861;28;20454;-70
2022/07/06 05:16:22;;;;;;;6.25;1.52;;;14.00;99.90;;;;;;5027269;28;20057;-70
2022/07/06 05:18:48;;;;;;;6.40;1.55;;;14.10;99.90;;;;;;5037344;28;20096;-72
2022/07/06 05:21:14;;;;;;;6.05;1.60;;;14.30;99.90;;;;;;5028348;28;20045;-71
2022/07/06 05:23:40;;;;;;;6.82;1.70;;;14.40;99.90;;;;;;5056158;28;20291;-70
2022/07/06 05:26:05;;;;;;;6.50;1.55;;;14.50;99.90;;;;;;5064049;28;20118;-69
2022/07/06 05:28:31;;;;;;;5.85;1.23;;;14.50;99.90;;;;;;5061444;28;20401;-69
2022/07/06 05:30:57;;;;;;;9.05;1.67;;;14.70;99.90;;;;;;5077755;28;20040;-70
2022/07/06 05:33:22;;;;;;;6.40;1.55;;;14.70;99.90;;;;;;5060206;28;20053;-71
2022/07/06 05:35:48;;;;;;;8.23;1.65;;;14.80;99.90;;;;;;5042655;28;20054;-71
2022/07/06 05:38:14;;;;;;;7.15;1.67;;;14.80;99.90;;;;;;5065047;28;20040;-71
2022/07/06 05:40:40;;;;;;;4.07;1.52;;;14.80;99.90;;;;;;5055674;28;20044;-71
2022/07/06 05:43:05;;;;;;;5.43;2.08;;;14.90;99.90;;;;;;5068021;28;20052;-70
2022/07/06 05:45:31;;;;;;;9.95;2.13;;;14.90;99.90;;;;;;5069155;28;20040;-70
2022/07/06 05:50:41;;;;;;;5.07;1.23;;;15.00;99.90;;;;;;5053881;28;20600;-69
2022/07/06 05:53:07;;;;;;;4.00;1.13;;;15.00;99.90;;;;;;5068044;28;20036;-69
2022/07/06 05:55:33;;;;;;;8.95;1.55;;;15.00;99.90;;;;;;5054216;28;20120;-69
2022/07/06 05:57:59;;;;;;;5.18;1.55;;;15.00;99.90;;;;;;5070450;28;20166;-70
2022/07/06 06:00:26;;;;;;;4.38;1.30;;;15.00;99.90;;;;;;5034537;28;20053;-67
2022/07/06 06:02:53;;;;;;;5.65;1.25;;;15.00;99.90;;;;;;5072087;28;20052;-67
2022/07/06 06:05:19;;;;;;;5.47;1.30;;;15.10;99.90;;;;;;5051558;28;20067;-67
2022/07/06 06:07:50;;;;;;;5.00;1.20;;;15.10;99.90;;;;;;5070108;28;20053;-67
2022/07/06 06:10:17;;;;;;;4.15;1.20;;;15.00;99.90;;;;;;5043302;28;20075;-68
2022/07/06 06:12:44;;;;;;;8.50;1.75;;;15.10;99.90;;;;;;5088052;28;20055;-67
2022/07/06 06:15:11;;;;;;;2.35;1.20;;;15.30;99.90;;;;;;5050762;28;20049;-68
2022/07/06 06:17:37;;;;;;;3.35;1.38;;;15.30;99.90;;;;;;5039640;28;20128;-68
2022/07/06 06:20:06;;;;;;;2.85;1.30;;;15.30;99.90;;;;;;5032598;28;20399;-67
2022/07/06 06:22:43;;;;;;;4.60;1.25;;;15.40;99.90;;;;;;5038846;28;20109;-67
2022/07/06 06:25:09;;;;;;;6.40;1.55;;;15.50;99.90;;;;;;5032159;28;20049;-67
2022/07/06 06:27:35;;;;;;;6.88;1.20;;;15.60;99.90;;;;;;5040217;28;20053;-67
2022/07/06 06:30:00;;;;;;;4.10;1.02;;;15.50;99.90;;;;;;5032293;28;20063;-67
2022/07/06 06:32:26;;;;;;;5.75;1.13;;;15.60;99.90;;;;;;5048869;28;20516;-67
2022/07/06 06:34:52;;;;;;;3.88;1.00;;;15.60;99.90;;;;;;5056772;28;20421;-67
2022/07/06 06:37:17;;;;;;;5.00;1.17;;;15.60;99.90;;;;;;5053088;28;20076;-67
2022/07/06 06:39:43;;;;;;;7.47;1.15;;;15.60;99.90;;;;;;5053960;28;20044;-67
2022/07/06 06:42:09;;;;;;;4.35;1.23;;;15.60;99.90;;;;;;5040861;28;20057;-67
2022/07/06 06:44:34;;;;;;;7.10;1.60;;;15.60;99.90;;;;;;5039263;28;20041;-67
2022/07/06 06:47:00;;;;;;;4.47;1.23;;;15.50;99.90;;;;;;5026759;28;20152;-70
2022/07/06 06:49:26;;;;;;;4.93;0.95;;;15.50;99.90;;;;;;5078347;28;20051;-68
2022/07/06 06:51:52;;;;;;;5.45;0.95;;;15.50;99.90;;;;;;5068977;28;20049;-68
2022/07/06 06:54:17;;;;;;;5.72;1.30;;;15.50;99.90;;;;;;5078643;28;20131;-68
2022/07/06 06:56:43;;;;;;;3.60;1.00;;;15.50;99.90;;;;;;5051663;28;20063;-68
2022/07/06 06:59:09;;;;;;;2.53;0.70;;;15.60;99.90;;;;;;5061295;28;20036;-68
2022/07/06 07:01:34;;;;;;;3.80;0.63;;;15.60;99.90;;;;;;5068619;28;20056;-68
2022/07/06 07:04:00;;;;;;;4.38;0.98;;;15.60;99.90;;;;;;5061415;28;20052;-68
2022/07/06 07:06:26;;;;;;;6.70;1.38;;;15.60;99.90;;;;;;5043957;28;20055;-67
2022/07/06 07:08:51;;;;;;;3.17;0.80;;;15.70;99.90;;;;;;5056033;28;20112;-68
2022/07/06 07:11:17;;;;;;;5.97;1.42;;;15.60;99.90;;;;;;5048849;28;20379;-68
2022/07/06 07:13:43;;;;;;;2.13;0.75;;;15.70;99.90;;;;;;5042582;28;20060;-68
2022/07/06 07:16:08;;;;;;;2.50;0.80;;;15.70;99.90;;;;;;5065969;28;20048;-68
2022/07/06 07:18:34;;;;;;;4.55;1.00;;;15.70;99.90;;;;;;5060540;28;20040;-68
2022/07/06 07:21:00;;;;;;;4.38;0.95;;;15.80;99.90;;;;;;5042174;28;20072;-68
2022/07/06 07:23:26;;;;;;;3.60;1.00;;;15.70;99.90;;;;;;5049056;28;20392;-68
2022/07/06 07:25:52;;;;;;;8.27;1.02;;;15.80;99.90;;;;;;5059447;28;20126;-68
2022/07/06 07:28:18;;;;;;;5.47;1.33;;;15.80;99.90;;;;;;5032977;28;20049;-68
2022/07/06 07:30:43;;;;;;;4.25;1.00;;;15.80;99.90;;;;;;5035221;28;20044;-68
2022/07/06 07:33:09;;;;;;;6.55;0.95;;;15.80;99.90;;;;;;5048874;28;20053;-68
2022/07/06 07:35:35;;;;;;;5.07;1.10;;;15.90;99.90;;;;;;5035660;28;20106;-68
2022/07/06 07:38:00;;;;;;;5.15;0.88;;;15.90;99.90;;;;;;5061908;28;20044;-68
2022/07/06 07:40:27;;;;;;;6.90;1.52;;;16.00;99.90;;;;;;5046287;28;20078;-68
2022/07/06 07:42:53;;;;;;;6.15;1.13;;;16.10;99.90;;;;;;5066107;28;20056;-68
2022/07/06 07:45:18;;;;;;;8.82;1.20;;;16.20;99.90;;;;;;5032542;28;20399;-68
2022/07/06 07:47:44;;;;;;;6.63;1.55;;;16.20;99.90;;;;;;5064562;28;20060;-67
2022/07/06 07:50:10;;;;;;;4.47;1.27;;;16.30;99.90;;;;;;5047541;28;20083;-68
2022/07/06 07:52:36;;;;;;;3.05;1.13;;;16.40;99.90;;;;;;5052967;28;20108;-67
2022/07/06 07:55:02;;;;;;;4.90;1.23;;;16.50;99.90;;;;;;5020640;28;20389;-68
2022/07/06 07:57:27;;;;;;;5.57;1.25;;;16.50;99.90;;;;;;5049653;28;20053;-67
2022/07/06 07:59:53;;;;;;;3.90;1.13;;;16.60;99.90;;;;;;5023440;28;20069;-68
2022/07/06 08:02:19;;;;;;;3.22;1.05;;;16.60;99.90;;;;;;5052427;28;20076;-67
2022/07/06 08:04:45;;;;;;;5.68;0.85;;;16.60;99.90;;;;;;5055877;28;20064;-67
2022/07/06 08:07:10;;;;;;;5.18;1.00;;;16.70;99.90;;;;;;5049423;28;20067;-67
2022/07/06 08:09:36;;;;;;;6.50;1.10;;;16.80;99.90;;;;;;5036532;28;20363;-67
2022/07/06 08:12:02;;;;;;;3.83;1.00;;;16.90;99.90;;;;;;5055436;28;20076;-67
2022/07/06 08:14:28;;;;;;;5.70;0.90;;;17.00;99.90;;;;;;5056683;28;20044;-67
2022/07/06 08:16:54;;;;;;;6.30;1.05;;;17.10;99.90;;;;;;5044385;28;20048;-67
2022/07/06 08:19:19;;;;;;;6.32;1.10;;;17.20;99.90;;;;;;5039190;28;20041;-67
2022/07/06 08:21:45;;;;;;;5.78;1.10;;;17.40;99.90;;;;;;5051524;28;20507;-67
2022/07/06 08:24:11;;;;;;;5.97;0.77;;;17.40;99.90;;;;;;5036378;28;20106;-68
2022/07/06 08:26:37;;;;;;;4.32;0.80;;;17.60;99.90;;;;;;5039066;28;20041;-68
2022/07/06 08:29:03;;;;;;;3.58;1.05;;;17.60;99.90;;;;;;5035200;28;20057;-68
2022/07/06 08:31:28;;;;;;;3.13;1.17;;;17.60;99.90;;;;;;5042838;28;20052;-68
2022/07/06 08:33:55;;;;;;;4.03;0.77;;;17.40;99.90;;;;;;5060699;28;20123;-68
2022/07/06 08:36:21;;;;;;;5.03;0.90;;;17.30;99.90;;;;;;5021789;28;20056;-67
2022/07/06 08:38:48;;;;;;;3.83;0.90;;;17.40;99.90;;;;;;5031940;28;20045;-67
2022/07/06 08:41:15;;;;;;;3.97;0.85;;;17.30;99.90;;;;;;5035803;28;20086;-68
2022/07/06 08:43:41;;;;;;;5.95;1.10;;;17.00;99.90;;;;;;5052688;28;20060;-68
2022/07/06 08:46:08;;;;;;;6.72;1.00;;;16.70;99.90;;;;;;5048210;28;20052;-68
2022/07/06 08:48:36;;;;;;;4.15;1.00;;;16.50;99.90;;;;;;5050888;28;20048;-67
2022/07/06 08:51:03;;;;;;;6.18;1.67;;;16.40;99.90;;;;;;5065072;28;20194;-67
2022/07/06 08:53:29;;;;;;;4.07;0.93;;;16.50;99.90;;;;;;5055084;28;20061;-67
2022/07/06 08:55:55;;;;;;;6.00;1.13;;;16.50;99.90;;;;;;5038798;28;20552;-67
2022/07/06 08:58:24;;;;;;;2.40;1.10;;;16.60;99.90;;;;;;5056542;28;20287;-67
2022/07/06 09:00:49;;;;;;;3.80;0.95;;;16.70;99.90;;;;;;5021752;28;20052;-67
2022/07/06 09:03:15;;;;;;;11.00;1.33;;;16.90;99.90;;;;;;5045232;28;20116;-68
2022/07/06 09:05:45;;;;;;;5.55;0.90;;;17.00;99.90;;;;;;5017276;28;20047;-68
2022/07/06 09:08:11;;;;;;;4.05;0.80;;;17.10;99.90;;;;;;5067985;28;20048;-68
2022/07/06 09:10:37;;;;;;;2.60;0.90;;;17.20;99.90;;;;;;5059407;28;20052;-68
2022/07/06 09:13:08;;;;;;;3.05;0.80;;;17.30;99.90;;;;;;5053876;28;20044;-68
2022/07/06 09:15:38;;;;;;;4.53;0.95;;;17.40;99.90;;;;;;5057063;28;20090;-68
2022/07/06 09:18:04;;;;;;;2.90;0.80;;;17.40;99.90;;;;;;5060398;28;20481;-68
2022/07/06 09:20:33;;;;;;;2.53;0.88;;;17.50;99.90;;;;;;5039986;28;20282;-68
2022/07/06 09:23:01;;;;;;;7.03;0.82;;;17.50;99.90;;;;;;5038216;28;20088;-68
2022/07/06 09:25:27;;;;;;;5.45;0.82;;;17.50;99.90;;;;;;5028284;28;20085;-67
2022/07/06 09:27:56;;;;;;;3.65;1.02;;;17.60;99.90;;;;;;5037141;28;20085;-67
2022/07/06 09:30:23;;;;;;;9.48;1.83;;;17.70;99.90;;;;;;5029544;28;20409;-68
2022/07/06 09:32:54;;;;;;;3.38;0.93;;;17.80;99.90;;;;;;5024129;28;20086;-67
2022/07/06 09:35:24;;;;;;;3.33;0.68;;;18.00;99.90;;;;;;5038938;28;20403;-68
2022/07/06 09:38:05;;;;;;;4.00;0.70;;;18.10;99.90;;;;;;5056499;28;20164;-68
2022/07/06 09:40:33;;;;;;;2.58;1.08;;;18.10;99.90;;;;;;5027931;28;20074;-67
2022/07/06 09:43:14;;;;;;;3.80;0.68;;;18.10;99.90;;;;;;5057970;28;20100;-68
2022/07/06 09:45:48;;;;;;;1.85;0.60;;;18.10;99.90;;;;;;5014975;28;20052;-68
2022/07/06 09:48:22;;;;;;;3.40;1.25;;;18.20;99.90;;;;;;5050674;28;20060;-68
2022/07/06 09:50:53;;;;;;;5.80;0.77;;;18.30;99.90;;;;;;5052362;28;20052;-68
2022/07/06 09:53:20;;;;;;;4.15;0.93;;;18.50;99.90;;;;;;5058992;28;20046;-68
2022/07/06 09:55:48;;;;;;;5.93;0.90;;;18.50;99.90;;;;;;5047431;28;20060;-68
2022/07/06 09:58:15;;;;;;;4.50;1.00;;;18.80;99.90;;;;;;5060861;28;20040;-69
2022/07/06 10:00:41;;;;;;;4.65;0.90;;;19.00;99.90;;;;;;5051838;28;20045;-68
2022/07/06 10:03:08;;;;;;;3.53;0.98;;;19.10;99.90;;;;;;5078730;28;20063;-68
2022/07/06 10:05:37;;;;;;;3.25;0.60;;;19.20;99.90;;;;;;5069991;28;20047;-68
2022/07/06 10:08:05;;;;;;;4.18;0.88;;;19.10;99.90;;;;;;5043520;28;20040;-68
2022/07/06 10:10:32;;;;;;;2.35;0.60;;;19.10;99.90;;;;;;5049503;28;20043;-68
2022/07/06 10:12:59;;;;;;;4.30;1.02;;;19.10;99.90;;;;;;5060515;28;20037;-68
2022/07/06 10:15:27;;;;;;;4.20;0.90;;;19.10;99.90;;;;;;5049641;28;20045;-68
2022/07/06 10:17:54;;;;;;;2.63;0.70;;;19.10;99.90;;;;;;5050236;28;20080;-68
2022/07/06 10:20:21;;;;;;;2.97;1.17;;;19.00;99.90;;;;;;5077288;28;20120;-67
2022/07/06 10:22:50;;;;;;;5.75;1.30;;;18.70;99.90;;;;;;5055117;28;20040;-67
2022/07/06 10:25:17;;;;;;;4.78;0.85;;;18.60;99.90;;;;;;5060799;28;20057;-66
2022/07/06 10:27:45;;;;;;;4.95;1.00;;;18.60;99.90;;;;;;5069121;28;20052;-67
2022/07/06 10:30:11;;;;;;;2.90;0.68;;;18.60;99.90;;;;;;5079801;28;20155;-67
2022/07/06 10:32:40;;;;;;;4.75;0.73;;;18.50;99.90;;;;;;5065473;28;20539;-67
2022/07/06 10:35:06;;;;;;;5.32;1.10;;;18.50;99.90;;;;;;5046406;28;20053;-67
2022/07/06 10:37:33;;;;;;;3.33;1.00;;;18.50;99.90;;;;;;5081691;28;20098;-66
2022/07/06 10:42:57;;;;;;;4.97;0.80;;;18.60;99.90;;;;;;5063915;28;20624;-67
2022/07/06 10:45:29;;;;;;;4.17;0.90;;;18.70;99.90;;;;;;5059744;28;20059;-67
2022/07/06 10:48:15;;;;;;;3.60;0.73;;;18.90;99.90;;;;;;5032888;28;20399;-67
2022/07/06 10:50:54;;;;;;;3.00;0.80;;;19.10;99.90;;;;;;5013675;28;20094;-67
2022/07/06 10:53:23;;;;;;;0.93;0.60;;;18.90;99.90;;;;;;5053396;28;20144;-68
2022/07/06 10:55:52;;;;;;;2.38;0.75;;;19.00;99.90;;;;;;5042704;28;20087;-67
2022/07/06 10:58:53;;;;;;;3.13;0.93;;;19.20;99.90;;;;;;5066072;28;20540;-68
2022/07/06 11:01:23;;;;;;;3.40;0.70;;;19.40;99.90;;;;;;4990878;28;20306;-67
2022/07/06 11:04:09;;;;;;;5.45;1.10;;;19.50;99.90;;;;;;4994109;28;20085;-68
2022/07/06 11:06:40;;;;;;;2.63;0.95;;;19.50;99.90;;;;;;4968770;28;20057;-68
2022/07/06 11:09:07;;;;;;;3.35;0.70;;;19.50;99.90;;;;;;4995128;28;20062;-68
2022/07/06 11:11:33;;;;;;;1.27;0.70;;;19.60;99.90;;;;;;4968950;28;20046;-68
2022/07/06 11:14:06;;;;;;;2.58;0.77;;;19.80;99.90;;;;;;4978177;28;20077;-68
2022/07/06 11:16:51;;;;;;;6.88;1.17;;;20.00;99.90;;;;;;4968940;28;20394;-68
2022/07/06 11:19:23;;;;;;;3.53;0.90;;;20.10;99.90;;;;;;4984677;28;20110;-68
2022/07/06 11:22:10;;;;;;;2.45;0.63;;;20.00;99.90;;;;;;4960483;28;20123;-68
2022/07/06 11:24:40;;;;;;;3.85;0.88;;;19.90;99.90;;;;;;4995903;28;20425;-68
2022/07/06 11:27:06;;;;;;;2.88;0.98;;;19.90;99.90;;;;;;4990181;28;20149;-68
2022/07/06 11:29:34;;;;;;;3.20;0.77;;;20.00;99.90;;;;;;4997560;28;20038;-68
2022/07/06 11:32:03;;;;;;;3.65;0.80;;;20.20;99.90;;;;;;4987856;28;20072;-68
2022/07/06 11:34:34;;;;;;;2.07;0.67;;;20.40;99.90;;;;;;4991260;28;20075;-68
2022/07/06 11:37:02;;;;;;;3.90;0.82;;;20.20;99.90;;;;;;5020126;28;20143;-68
2022/07/06 11:39:29;;;;;;;3.42;0.90;;;20.10;99.90;;;;;;5038139;28;20397;-68
2022/07/06 11:41:56;;;;;;;3.80;0.98;;;20.00;99.90;;;;;;5045084;28;20200;-69
2022/07/06 11:44:22;;;;;;;3.75;1.00;;;20.00;99.90;;;;;;5042248;28;20045;-68
2022/07/06 11:46:48;;;;;;;4.03;1.38;;;19.90;99.90;;;;;;5026870;28;20104;-68
2022/07/06 11:49:15;;;;;;;4.47;0.98;;;19.80;99.90;;;;;;5017944;28;20084;-68
2022/07/06 11:51:42;;;;;;;3.30;0.82;;;19.70;99.90;;;;;;5001369;28;20066;-68
2022/07/06 11:54:13;;;;;;;3.17;0.95;;;19.50;99.90;;;;;;5035585;28;20046;-68
2022/07/06 11:56:49;;;;;;;2.55;0.80;;;19.50;99.90;;;;;;5001359;28;20070;-68
2022/07/06 11:59:16;;;;;;;2.38;0.77;;;19.70;99.90;;;;;;5028926;28;20041;-68
2022/07/06 12:01:44;;;;;;;3.03;0.80;;;20.00;99.90;;;;;;5004038;28;20220;-68
2022/07/06 12:04:10;;;;;;;2.33;0.73;;;20.10;99.90;;;;;;5019711;28;20049;-68
2022/07/06 12:06:36;;;;;;;1.33;0.60;;;20.20;99.90;;;;;;5045629;28;20141;-68
2022/07/06 12:09:04;;;;;;;2.65;0.80;;;20.10;99.90;;;;;;5055469;28;20048;-68
2022/07/06 12:11:34;;;;;;;3.15;0.60;;;20.10;99.90;;;;;;5043906;28;20095;-68
2022/07/06 12:14:17;;;;;;;4.38;1.10;;;20.00;99.90;;;;;;5034620;28;20517;-68
2022/07/06 12:16:43;;;;;;;2.05;0.70;;;20.20;99.90;;;;;;5001028;28;20089;-68
2022/07/06 12:19:11;;;;;;;4.72;1.77;;;20.50;99.90;;;;;;5034311;28;20433;-68
2022/07/06 12:21:45;;;;;;;3.75;0.80;;;20.80;99.90;;;;;;5030645;28;20049;-68
2022/07/06 12:24:20;;;;;;;5.63;0.85;;;20.90;99.90;;;;;;5017879;28;20286;-68
2022/07/06 12:26:47;;;;;;;3.33;0.90;;;20.80;99.90;;;;;;5010774;28;20049;-68
2022/07/06 12:29:13;;;;;;;5.63;0.90;;;20.80;99.90;;;;;;5019332;28;20045;-68
2022/07/06 12:31:44;;;;;;;2.38;0.88;;;20.70;99.90;;;;;;4992263;28;20137;-69
2022/07/06 12:34:20;;;;;;;4.32;0.90;;;20.80;99.90;;;;;;5017441;28;20579;-69
2022/07/06 12:36:58;;;;;;;3.47;1.10;;;20.90;99.90;;;;;;5001086;28;20529;-69
2022/07/06 12:39:25;;;;;;;4.15;0.93;;;21.00;99.90;;;;;;5016514;28;20060;-68
2022/07/06 12:41:52;;;;;;;2.72;0.65;;;20.90;99.90;;;;;;5022431;28;20065;-69
2022/07/06 12:44:21;;;;;;;2.53;0.80;;;20.90;99.90;;;;;;5057904;28;20045;-68
2022/07/06 12:46:47;;;;;;;3.60;1.08;;;20.80;99.90;;;;;;5027722;28;20140;-68
2022/07/06 12:49:24;;;;;;;3.65;1.30;;;20.60;99.90;;;;;;5025703;28;20108;-69
2022/07/06 12:52:12;;;;;;;3.92;0.85;;;20.50;99.90;;;;;;5013249;28;20048;-68
2022/07/06 12:54:44;;;;;;;3.40;0.75;;;20.60;99.90;;;;;;5021455;28;20045;-68